Time;durP1;ratioP1;P1;durP2;ratioP2;P2;SDS_P1;SDS_P2;PMS_P1;PMS_P2;Temp;Humidity;BMP_temperature;BMP_pressure;BME280_temperature;BME280_humidity;BME280_pressure;Samples;Min_cycle;Max_cycle;Signal;HPM_P1;HPM_P2
2023/09/03 00:01:33;;;;;;;4.05;3.65;;;14.30;99.90;;;;;;5038404;28;20122;-59
2023/09/03 00:03:59;;;;;;;4.38;3.97;;;14.30;99.90;;;;;;5040339;28;20043;-56
2023/09/03 00:06:25;;;;;;;5.13;4.63;;;14.10;99.90;;;;;;5042295;28;20033;-58
2023/09/03 00:08:51;;;;;;;6.88;4.18;;;14.10;99.90;;;;;;5036847;28;20034;-57
2023/09/03 00:11:17;;;;;;;5.03;4.60;;;14.00;99.90;;;;;;5035373;28;20124;-59
2023/09/03 00:13:45;;;;;;;5.10;4.60;;;13.90;99.90;;;;;;5028832;28;20041;-59
2023/09/03 00:16:11;;;;;;;4.50;4.10;;;13.90;99.90;;;;;;5040720;28;20041;-58
2023/09/03 00:18:37;;;;;;;4.63;4.22;;;13.80;99.90;;;;;;5038476;28;20049;-58
2023/09/03 00:21:04;;;;;;;4.10;3.80;;;13.80;99.90;;;;;;5017500;28;20057;-57
2023/09/03 00:23:31;;;;;;;4.30;3.90;;;13.70;99.90;;;;;;5035674;28;20041;-59
2023/09/03 00:25:58;;;;;;;4.20;3.80;;;13.70;99.90;;;;;;5031767;28;20174;-59
2023/09/03 00:28:24;;;;;;;4.35;3.95;;;13.70;99.90;;;;;;5040574;28;20049;-59
2023/09/03 00:31:11;;;;;;;4.25;3.85;;;13.60;99.90;;;;;;5039508;28;20407;-58
2023/09/03 00:33:37;;;;;;;4.47;4.07;;;13.70;99.90;;;;;;5041947;28;20039;-56
2023/09/03 00:36:04;;;;;;;5.10;4.60;;;13.60;99.90;;;;;;5032101;28;20037;-58
2023/09/03 00:38:31;;;;;;;5.32;4.82;;;13.60;99.90;;;;;;5038701;28;20055;-58
2023/09/03 00:40:57;;;;;;;4.90;4.30;;;13.60;99.90;;;;;;5035003;28;20498;-56
2023/09/03 00:43:23;;;;;;;7.50;4.40;;;13.60;99.90;;;;;;5035595;28;20056;-58
2023/09/03 00:45:49;;;;;;;4.63;4.20;;;13.60;99.90;;;;;;5037054;28;20815;-58
2023/09/03 00:48:18;;;;;;;4.90;4.50;;;13.60;99.90;;;;;;5033948;28;20041;-57
2023/09/03 00:50:46;;;;;;;4.90;4.32;;;13.60;99.90;;;;;;5038798;28;20049;-57
2023/09/03 00:53:13;;;;;;;4.55;4.00;;;13.60;99.90;;;;;;5036536;28;20049;-56
2023/09/03 00:55:38;;;;;;;4.30;3.90;;;13.60;99.90;;;;;;5047309;28;20037;-58
2023/09/03 00:58:08;;;;;;;3.83;3.50;;;13.50;99.90;;;;;;5041188;28;20545;-57
2023/09/03 01:00:35;;;;;;;3.22;2.92;;;13.50;99.90;;;;;;5044181;28;20045;-56
2023/09/03 01:03:03;;;;;;;3.30;2.90;;;13.40;99.90;;;;;;5039479;28;20064;-57
2023/09/03 01:05:29;;;;;;;4.22;3.28;;;13.40;99.90;;;;;;5040553;28;20044;-58
2023/09/03 01:07:57;;;;;;;4.40;4.00;;;13.40;99.90;;;;;;5032041;28;20037;-57
2023/09/03 01:10:33;;;;;;;4.20;3.70;;;13.40;99.90;;;;;;5043453;28;20065;-56
2023/09/03 01:13:09;;;;;;;5.20;4.38;;;13.40;99.90;;;;;;5039559;28;20052;-57
2023/09/03 01:15:41;;;;;;;4.65;4.22;;;13.30;99.90;;;;;;5042456;28;20032;-59
2023/09/03 01:18:17;;;;;;;5.35;4.85;;;13.30;99.90;;;;;;5041341;28;20098;-58
2023/09/03 01:21:30;;;;;;;6.43;5.82;;;13.30;99.90;;;;;;5039063;28;20119;-56
2023/09/03 01:24:12;;;;;;;6.28;5.68;;;13.30;99.90;;;;;;5043957;28;20202;-57
2023/09/03 01:26:58;;;;;;;7.65;5.70;;;13.30;99.90;;;;;;5042700;28;20045;-57
2023/09/03 01:29:26;;;;;;;5.88;4.78;;;13.30;99.90;;;;;;5037196;28;20135;-57
2023/09/03 01:31:53;;;;;;;4.72;4.32;;;13.30;99.90;;;;;;5045149;28;20046;-58
2023/09/03 01:34:20;;;;;;;4.53;3.80;;;13.30;99.90;;;;;;5045215;28;20095;-58
2023/09/03 01:36:46;;;;;;;3.72;3.42;;;13.30;99.90;;;;;;5039174;28;20041;-59
2023/09/03 01:39:12;;;;;;;4.25;3.95;;;13.30;99.90;;;;;;5043828;28;20041;-57
2023/09/03 01:41:38;;;;;;;5.63;5.03;;;13.20;99.90;;;;;;5044439;28;20040;-58
2023/09/03 01:44:08;;;;;;;7.13;6.03;;;13.20;99.90;;;;;;5044020;28;20088;-56
2023/09/03 01:46:49;;;;;;;7.00;6.30;;;13.20;99.90;;;;;;5044386;28;20045;-58
2023/09/03 01:49:27;;;;;;;7.88;7.15;;;13.20;99.90;;;;;;5047993;28;20064;-58
2023/09/03 01:52:07;;;;;;;9.23;7.32;;;13.20;99.90;;;;;;5046207;28;20037;-59
2023/09/03 01:54:46;;;;;;;8.00;7.10;;;13.30;99.90;;;;;;5045242;28;20550;-59
2023/09/03 01:57:24;;;;;;;7.38;6.68;;;13.30;99.90;;;;;;5043689;28;20072;-58
2023/09/03 01:59:53;;;;;;;7.00;6.30;;;13.30;99.90;;;;;;5046685;28;20442;-58
2023/09/03 02:02:20;;;;;;;6.95;6.35;;;13.30;99.90;;;;;;5046013;28;20127;-58
2023/09/03 02:04:46;;;;;;;6.78;6.18;;;13.30;99.90;;;;;;5048807;28;20428;-56
2023/09/03 02:07:12;;;;;;;6.80;6.03;;;13.20;99.90;;;;;;5043391;28;20068;-58
2023/09/03 02:09:38;;;;;;;6.55;5.95;;;13.20;99.90;;;;;;5041456;28;20211;-58
2023/09/03 02:12:06;;;;;;;6.70;6.10;;;13.20;99.90;;;;;;5031786;28;20044;-58
2023/09/03 02:14:32;;;;;;;6.97;6.18;;;13.20;99.90;;;;;;5039843;28;20048;-58
2023/09/03 02:16:57;;;;;;;7.13;6.43;;;13.10;99.90;;;;;;5044684;28;20052;-58
2023/09/03 02:19:23;;;;;;;7.70;6.90;;;13.20;99.90;;;;;;5038192;28;20085;-57
2023/09/03 02:21:50;;;;;;;7.93;7.10;;;13.10;99.90;;;;;;5027174;28;20091;-58
2023/09/03 02:24:16;;;;;;;7.53;6.82;;;13.20;99.90;;;;;;5039084;28;20037;-57
2023/09/03 02:26:42;;;;;;;8.30;7.25;;;13.20;99.90;;;;;;5043088;28;20075;-56
2023/09/03 02:29:08;;;;;;;7.80;7.00;;;13.20;99.90;;;;;;5041507;28;20051;-59
2023/09/03 02:31:34;;;;;;;7.97;7.05;;;13.20;99.90;;;;;;5043412;28;20045;-57
2023/09/03 02:34:00;;;;;;;8.43;6.60;;;13.20;99.90;;;;;;5042118;28;20070;-57
2023/09/03 02:36:25;;;;;;;6.55;5.70;;;13.10;99.90;;;;;;5043535;28;20055;-57
2023/09/03 02:39:02;;;;;;;6.38;5.50;;;13.10;99.90;;;;;;5031050;28;20037;-58
2023/09/03 02:41:32;;;;;;;7.15;6.03;;;13.10;99.90;;;;;;5042722;28;20044;-57
2023/09/03 02:43:58;;;;;;;6.22;5.60;;;13.20;99.90;;;;;;5042047;28;20040;-59
2023/09/03 02:46:25;;;;;;;8.57;6.85;;;13.20;99.90;;;;;;5040657;28;20049;-59
2023/09/03 02:48:51;;;;;;;7.90;6.97;;;13.10;99.90;;;;;;5040866;28;20044;-59
2023/09/03 02:51:17;;;;;;;7.68;6.75;;;13.10;99.90;;;;;;5045388;28;20437;-58
2023/09/03 02:53:45;;;;;;;5.22;4.72;;;13.10;99.90;;;;;;5038975;28;20126;-57
2023/09/03 02:56:12;;;;;;;5.60;4.00;;;13.10;99.90;;;;;;5044932;28;20483;-59
2023/09/03 02:58:38;;;;;;;5.05;3.97;;;13.00;99.90;;;;;;5041176;28;20128;-58
2023/09/03 03:01:09;;;;;;;8.60;5.78;;;13.00;99.90;;;;;;5039057;28;20070;-57
2023/09/03 03:03:34;;;;;;;6.05;5.45;;;13.00;99.90;;;;;;5044273;28;20403;-59
2023/09/03 03:06:01;;;;;;;5.20;4.68;;;12.90;99.90;;;;;;5041975;28;20041;-58
2023/09/03 03:08:26;;;;;;;5.07;4.57;;;12.90;99.90;;;;;;5044554;28;20076;-58
2023/09/03 03:10:52;;;;;;;4.65;4.25;;;12.80;99.90;;;;;;5043477;28;20488;-58
2023/09/03 03:13:18;;;;;;;5.57;5.00;;;12.80;99.90;;;;;;5042762;28;20040;-55
2023/09/03 03:15:46;;;;;;;5.22;4.72;;;12.80;99.90;;;;;;5040295;28;20036;-59
2023/09/03 03:18:12;;;;;;;6.35;5.53;;;12.80;99.90;;;;;;5041276;28;20053;-58
2023/09/03 03:20:37;;;;;;;5.22;4.72;;;12.80;99.90;;;;;;5041078;28;20194;-58
2023/09/03 03:23:03;;;;;;;5.82;5.22;;;12.70;99.90;;;;;;5043510;28;20383;-57
2023/09/03 03:25:29;;;;;;;5.97;5.38;;;12.70;99.90;;;;;;5040404;28;20044;-59
2023/09/03 03:27:55;;;;;;;6.20;5.60;;;12.70;99.90;;;;;;5043730;28;20064;-57
2023/09/03 03:30:21;;;;;;;6.50;5.82;;;12.60;99.90;;;;;;5044473;28;20033;-57
2023/09/03 03:32:46;;;;;;;7.45;6.47;;;12.60;99.90;;;;;;5045105;28;20044;-57
2023/09/03 03:35:12;;;;;;;6.43;5.82;;;12.60;99.90;;;;;;5046164;28;20051;-57
2023/09/03 03:37:38;;;;;;;6.28;5.68;;;12.60;99.90;;;;;;5045233;28;20040;-59
2023/09/03 03:40:06;;;;;;;6.35;5.75;;;12.60;99.90;;;;;;5048064;28;20484;-58
2023/09/03 03:42:32;;;;;;;6.22;5.63;;;12.50;99.90;;;;;;5046344;28;20069;-58
2023/09/03 03:44:57;;;;;;;6.53;5.93;;;12.50;99.90;;;;;;5043101;28;20171;-56
2023/09/03 03:47:23;;;;;;;6.63;6.03;;;12.50;99.90;;;;;;5035609;28;20033;-59
2023/09/03 03:49:49;;;;;;;6.53;5.93;;;12.50;99.90;;;;;;5035289;28;20068;-58
2023/09/03 03:52:15;;;;;;;6.00;5.50;;;12.50;99.90;;;;;;5038292;28;20496;-57
2023/09/03 03:54:40;;;;;;;7.10;6.50;;;12.50;99.90;;;;;;5038203;28;20055;-58
2023/09/03 03:57:06;;;;;;;6.22;5.72;;;12.50;99.90;;;;;;5035516;28;20639;-56
2023/09/03 03:59:33;;;;;;;6.05;5.45;;;12.50;99.90;;;;;;5037538;28;20037;-56
2023/09/03 04:01:59;;;;;;;6.20;5.60;;;12.50;99.90;;;;;;5038628;28;20059;-57
2023/09/03 04:04:25;;;;;;;6.07;5.47;;;12.50;99.90;;;;;;5038628;28;20980;-57
2023/09/03 04:06:50;;;;;;;5.63;5.13;;;12.50;99.90;;;;;;5039596;28;20041;-57
2023/09/03 04:09:16;;;;;;;6.28;5.65;;;12.50;99.90;;;;;;5041636;28;20044;-57
2023/09/03 04:11:42;;;;;;;5.25;4.85;;;12.50;99.90;;;;;;5038749;28;20102;-57
2023/09/03 04:14:07;;;;;;;5.15;4.75;;;12.50;99.90;;;;;;5043090;28;20075;-58
2023/09/03 04:16:33;;;;;;;4.80;4.40;;;12.40;99.90;;;;;;5038215;28;20058;-58
2023/09/03 04:18:59;;;;;;;4.70;4.30;;;12.40;99.90;;;;;;5045564;28;20041;-58
2023/09/03 04:21:24;;;;;;;4.45;4.10;;;12.40;99.90;;;;;;5031568;28;20462;-58
2023/09/03 04:23:50;;;;;;;4.63;4.22;;;12.40;99.90;;;;;;5048094;28;20367;-57
2023/09/03 04:26:16;;;;;;;4.15;3.85;;;12.30;99.90;;;;;;5048922;28;20080;-58
2023/09/03 04:28:42;;;;;;;4.15;3.78;;;12.30;99.90;;;;;;5046386;28;20040;-58
2023/09/03 04:31:10;;;;;;;3.60;3.30;;;12.30;99.90;;;;;;5050009;28;20071;-57
2023/09/03 04:33:36;;;;;;;4.13;3.72;;;12.30;99.90;;;;;;5033529;28;20505;-59
2023/09/03 04:36:03;;;;;;;4.43;4.13;;;12.30;99.90;;;;;;5043360;28;20473;-55
2023/09/03 04:38:29;;;;;;;5.88;5.38;;;12.30;99.90;;;;;;5046555;28;20041;-58
2023/09/03 04:40:56;;;;;;;5.50;5.00;;;12.30;99.90;;;;;;5045102;28;20043;-59
2023/09/03 04:43:23;;;;;;;5.53;5.00;;;12.30;99.90;;;;;;5041585;28;20052;-56
2023/09/03 04:45:53;;;;;;;7.65;5.45;;;12.30;99.90;;;;;;5042424;28;20373;-57
2023/09/03 04:48:20;;;;;;;6.00;5.50;;;12.30;99.90;;;;;;5042346;28;20044;-58
2023/09/03 04:50:46;;;;;;;5.43;4.80;;;12.30;99.90;;;;;;5041990;28;20053;-58
2023/09/03 04:53:12;;;;;;;6.25;5.75;;;12.30;99.90;;;;;;5041509;28;20036;-59
2023/09/03 04:55:38;;;;;;;6.50;5.85;;;12.30;99.90;;;;;;5045233;28;20044;-55
2023/09/03 04:58:04;;;;;;;6.85;5.97;;;12.30;99.90;;;;;;5045938;28;20032;-58
2023/09/03 05:00:30;;;;;;;7.03;6.43;;;12.40;99.90;;;;;;5015172;28;20052;-58
2023/09/03 05:02:57;;;;;;;8.55;7.75;;;12.40;99.90;;;;;;5039194;28;20520;-58
2023/09/03 05:05:23;;;;;;;7.20;6.50;;;12.40;99.90;;;;;;5041918;28;20476;-57
2023/09/03 05:07:49;;;;;;;7.90;6.00;;;12.40;99.90;;;;;;5045218;28;20087;-58
2023/09/03 05:10:15;;;;;;;6.53;5.93;;;12.40;99.90;;;;;;5047814;28;20115;-57
2023/09/03 05:12:41;;;;;;;6.13;5.57;;;12.40;99.90;;;;;;5043431;28;20045;-59
2023/09/03 05:15:08;;;;;;;5.50;5.00;;;12.50;99.90;;;;;;5043490;28;20068;-59
2023/09/03 05:17:34;;;;;;;4.32;3.95;;;12.40;99.90;;;;;;5038942;28;20138;-58
2023/09/03 05:20:00;;;;;;;4.57;4.18;;;12.50;99.90;;;;;;5041658;28;20415;-59
2023/09/03 05:22:25;;;;;;;5.88;5.00;;;12.50;99.90;;;;;;5042069;28;20045;-58
2023/09/03 05:24:51;;;;;;;5.68;5.18;;;12.50;99.90;;;;;;5044328;28;20040;-58
2023/09/03 05:27:17;;;;;;;7.43;6.65;;;12.50;99.90;;;;;;5041157;28;20126;-58
2023/09/03 05:29:43;;;;;;;7.35;6.65;;;12.40;99.90;;;;;;5041455;28;21701;-56
2023/09/03 05:32:09;;;;;;;7.50;6.80;;;12.50;99.90;;;;;;5042399;28;20060;-57
2023/09/03 05:34:34;;;;;;;8.82;7.97;;;12.50;99.90;;;;;;5042922;28;20045;-58
2023/09/03 05:37:01;;;;;;;8.90;8.00;;;12.50;99.90;;;;;;5040148;28;20094;-59
2023/09/03 05:39:26;;;;;;;8.23;7.43;;;12.60;99.90;;;;;;5048801;28;20099;-58
2023/09/03 05:41:52;;;;;;;8.18;7.20;;;12.60;99.90;;;;;;5049862;28;20044;-59
2023/09/03 05:44:18;;;;;;;8.18;7.15;;;12.60;99.90;;;;;;5049130;28;20126;-57
2023/09/03 05:46:44;;;;;;;7.78;6.78;;;12.70;99.90;;;;;;5047384;28;20604;-58
2023/09/03 05:49:10;;;;;;;8.20;7.40;;;12.70;99.90;;;;;;5043596;28;20041;-57
2023/09/03 05:51:35;;;;;;;9.30;8.25;;;12.80;99.90;;;;;;5044633;28;20063;-57
2023/09/03 05:54:01;;;;;;;9.32;8.32;;;12.80;99.90;;;;;;5046083;28;20043;-59
2023/09/03 05:56:27;;;;;;;12.80;10.13;;;12.80;99.90;;;;;;5044693;28;20428;-57
2023/09/03 05:58:53;;;;;;;9.70;8.65;;;12.90;99.90;;;;;;5048826;28;20081;-56
2023/09/03 06:01:18;;;;;;;10.18;9.07;;;12.90;99.90;;;;;;5043429;28;20036;-57
2023/09/03 06:03:44;;;;;;;11.18;9.10;;;13.00;99.90;;;;;;5048714;28;20065;-59
2023/09/03 06:06:11;;;;;;;12.57;9.82;;;13.00;99.90;;;;;;5046907;28;20032;-56
2023/09/03 06:08:38;;;;;;;10.52;8.73;;;13.10;99.90;;;;;;5045991;28;20392;-57
2023/09/03 06:11:05;;;;;;;10.90;9.52;;;13.10;99.90;;;;;;5040005;28;20079;-57
2023/09/03 06:13:33;;;;;;;11.70;10.05;;;13.20;99.90;;;;;;5042637;28;20036;-58
2023/09/03 06:15:58;;;;;;;13.27;9.65;;;13.20;99.90;;;;;;5042974;28;20047;-58
2023/09/03 06:18:25;;;;;;;13.23;10.43;;;13.30;99.90;;;;;;5034147;28;20049;-57
2023/09/03 06:20:51;;;;;;;15.35;11.27;;;13.30;99.90;;;;;;5034708;28;20519;-58
2023/09/03 06:23:21;;;;;;;13.25;11.75;;;13.40;99.90;;;;;;5038761;28;20452;-58
2023/09/03 06:25:48;;;;;;;12.20;10.85;;;13.40;99.90;;;;;;5036177;28;20056;-57
2023/09/03 06:28:15;;;;;;;15.15;12.40;;;13.50;99.90;;;;;;5032889;28;20175;-58
2023/09/03 06:30:41;;;;;;;14.10;11.57;;;13.60;99.90;;;;;;5030663;28;20660;-58
2023/09/03 06:33:07;;;;;;;12.60;10.48;;;13.60;99.90;;;;;;5035305;28;20107;-58
2023/09/03 06:35:33;;;;;;;13.27;10.85;;;13.70;99.90;;;;;;5035881;28;20048;-58
2023/09/03 06:37:59;;;;;;;12.73;10.93;;;13.80;99.90;;;;;;5033690;28;20445;-57
2023/09/03 06:40:26;;;;;;;13.05;10.45;;;13.80;99.90;;;;;;5032894;28;20051;-56
2023/09/03 06:42:52;;;;;;;15.23;11.13;;;13.90;99.90;;;;;;5034641;28;20557;-57
2023/09/03 06:45:18;;;;;;;13.63;10.43;;;14.00;99.90;;;;;;5031898;28;20111;-56
2023/09/03 06:47:44;;;;;;;13.48;11.05;;;14.10;99.90;;;;;;5035813;28;20706;-55
2023/09/03 06:50:11;;;;;;;12.52;11.23;;;14.10;99.90;;;;;;5031848;28;20380;-59
2023/09/03 06:52:37;;;;;;;12.73;10.90;;;14.30;99.90;;;;;;5031440;28;20048;-57
2023/09/03 06:55:04;;;;;;;14.70;11.18;;;14.30;99.90;;;;;;5031902;28;20055;-58
2023/09/03 06:57:31;;;;;;;13.43;11.10;;;14.40;99.90;;;;;;5032445;28;20393;-58
2023/09/03 06:59:57;;;;;;;14.45;10.65;;;14.50;99.90;;;;;;5033692;28;20045;-57
2023/09/03 07:02:23;;;;;;;15.35;10.93;;;14.50;99.90;;;;;;5038050;28;20458;-59
2023/09/03 07:04:49;;;;;;;12.45;10.18;;;14.60;99.90;;;;;;5034915;28;20048;-55
2023/09/03 07:07:15;;;;;;;12.55;10.93;;;14.70;99.90;;;;;;5018931;28;20045;-59
2023/09/03 07:09:41;;;;;;;14.35;10.90;;;14.80;99.90;;;;;;5035698;28;20040;-58
2023/09/03 07:12:07;;;;;;;11.68;9.43;;;14.80;99.90;;;;;;5034756;28;20041;-57
2023/09/03 07:14:33;;;;;;;13.50;11.00;;;14.90;99.90;;;;;;5030582;28;20744;-58
2023/09/03 07:17:00;;;;;;;11.30;10.15;;;15.00;99.90;;;;;;5035005;28;20498;-58
2023/09/03 07:19:27;;;;;;;11.50;9.93;;;15.10;99.90;;;;;;5040644;28;20111;-59
2023/09/03 07:21:53;;;;;;;11.15;9.45;;;15.20;99.90;;;;;;5040293;28;20056;-58
2023/09/03 07:24:19;;;;;;;10.90;9.77;;;15.30;99.90;;;;;;5039168;28;20037;-55
2023/09/03 07:26:44;;;;;;;12.05;10.00;;;15.40;99.90;;;;;;5040505;28;20396;-56
2023/09/03 07:29:12;;;;;;;11.88;9.35;;;15.50;99.90;;;;;;5040433;28;20038;-56
2023/09/03 07:31:41;;;;;;;11.48;9.27;;;15.80;99.90;;;;;;5041198;28;20080;-56
2023/09/03 07:34:16;;;;;;;10.75;8.80;;;15.70;99.90;;;;;;5040307;28;20380;-55
2023/09/03 07:36:42;;;;;;;9.73;8.70;;;15.90;99.90;;;;;;5038747;28;20041;-57
2023/09/03 07:39:11;;;;;;;12.45;8.55;;;15.90;99.90;;;;;;5041370;28;20492;-56
2023/09/03 07:41:38;;;;;;;11.50;8.15;;;16.00;99.90;;;;;;5041181;28;20049;-58
2023/09/03 07:44:05;;;;;;;10.63;8.20;;;16.10;99.90;;;;;;5032926;28;20115;-57
2023/09/03 07:46:31;;;;;;;10.57;8.73;;;16.20;99.90;;;;;;5033608;28;20052;-57
2023/09/03 07:48:57;;;;;;;10.82;8.38;;;16.30;99.90;;;;;;5037264;28;20127;-56
2023/09/03 07:51:23;;;;;;;11.32;8.13;;;16.40;99.90;;;;;;5029180;28;20327;-58
2023/09/03 07:53:49;;;;;;;12.18;8.20;;;16.60;99.90;;;;;;5043145;28;20853;-57
2023/09/03 07:56:17;;;;;;;11.00;8.00;;;16.70;99.90;;;;;;5055512;28;20639;-58
2023/09/03 07:58:43;;;;;;;9.23;8.30;;;16.80;99.90;;;;;;5036685;28;20540;-57
2023/09/03 08:01:14;;;;;;;8.30;6.90;;;17.00;99.90;;;;;;5037531;28;20044;-57
2023/09/03 08:03:42;;;;;;;8.10;7.20;;;17.10;99.90;;;;;;5043336;28;20037;-57
2023/09/03 08:06:08;;;;;;;8.25;6.03;;;17.20;99.90;;;;;;5043988;28;20064;-54
2023/09/03 08:08:35;;;;;;;8.93;6.13;;;17.30;99.90;;;;;;5042336;28;20403;-56
2023/09/03 08:11:01;;;;;;;7.85;5.97;;;17.40;99.90;;;;;;5041957;28;20402;-58
2023/09/03 08:13:27;;;;;;;6.78;5.15;;;17.60;99.90;;;;;;5045403;28;20040;-57
2023/09/03 08:15:53;;;;;;;6.30;4.43;;;17.70;99.90;;;;;;5040107;28;20390;-57
2023/09/03 08:18:20;;;;;;;6.38;4.40;;;17.80;99.90;;;;;;5037453;28;20116;-56
2023/09/03 08:20:48;;;;;;;9.02;4.97;;;17.80;99.90;;;;;;5039741;28;20094;-57
2023/09/03 08:23:14;;;;;;;6.15;4.50;;;17.90;99.90;;;;;;5041311;28;20103;-58
2023/09/03 08:25:40;;;;;;;6.07;4.57;;;18.00;99.90;;;;;;5039008;28;20045;-59
2023/09/03 08:28:10;;;;;;;5.88;4.28;;;18.10;99.90;;;;;;5040391;28;20982;-59
2023/09/03 08:30:36;;;;;;;5.72;4.20;;;18.20;99.90;;;;;;5032430;28;20099;-57
2023/09/03 08:33:02;;;;;;;6.57;3.67;;;18.30;99.90;;;;;;5038890;28;20390;-59
2023/09/03 08:35:28;;;;;;;6.22;4.38;;;18.40;99.90;;;;;;5031383;28;20495;-57
2023/09/03 08:37:54;;;;;;;5.82;3.47;;;18.50;99.90;;;;;;5032240;28;20105;-59
2023/09/03 08:40:20;;;;;;;5.25;3.75;;;18.50;99.90;;;;;;5032155;28;20052;-59
2023/09/03 08:42:47;;;;;;;5.15;3.85;;;18.60;99.90;;;;;;5031336;28;20045;-57
2023/09/03 08:45:16;;;;;;;5.18;3.65;;;18.80;99.90;;;;;;5038435;28;20047;-57
2023/09/03 08:47:44;;;;;;;6.65;3.50;;;18.80;99.90;;;;;;5033660;28;20124;-58
2023/09/03 08:50:14;;;;;;;4.72;3.33;;;18.90;99.90;;;;;;5037489;28;20047;-58
2023/09/03 08:52:42;;;;;;;5.80;3.60;;;19.00;99.90;;;;;;5041005;28;20380;-59
2023/09/03 08:55:10;;;;;;;6.05;3.67;;;19.20;99.90;;;;;;5044443;28;20128;-58
2023/09/03 08:57:36;;;;;;;5.68;3.60;;;19.30;99.90;;;;;;5043995;28;20534;-59
2023/09/03 09:00:06;;;;;;;5.40;3.55;;;19.40;99.90;;;;;;5031769;28;20071;-58
2023/09/03 09:02:35;;;;;;;6.18;3.53;;;19.60;99.90;;;;;;5045206;28;20398;-59
2023/09/03 09:05:11;;;;;;;5.47;3.63;;;19.70;99.90;;;;;;5043208;28;20098;-59
2023/09/03 09:07:37;;;;;;;7.35;4.05;;;19.80;99.90;;;;;;5043000;28;20045;-59
2023/09/03 09:10:06;;;;;;;5.82;3.78;;;19.90;99.90;;;;;;5046307;28;20036;-57
2023/09/03 09:12:41;;;;;;;5.57;3.75;;;20.00;99.90;;;;;;5044971;28;20128;-59
2023/09/03 09:15:07;;;;;;;7.47;3.92;;;20.00;99.90;;;;;;5046343;28;20640;-59
2023/09/03 09:17:38;;;;;;;7.38;4.45;;;20.10;99.90;;;;;;5044496;28;20051;-59
2023/09/03 09:20:07;;;;;;;6.70;3.83;;;20.20;99.90;;;;;;5045966;28;20045;-59
2023/09/03 09:22:40;;;;;;;5.45;3.83;;;20.30;99.90;;;;;;5046344;28;20444;-59
2023/09/03 09:25:07;;;;;;;7.93;4.00;;;20.40;99.90;;;;;;5044424;28;20090;-60
2023/09/03 09:27:36;;;;;;;6.05;3.90;;;20.40;99.90;;;;;;5045111;28;20045;-59
2023/09/03 09:30:12;;;;;;;5.75;3.60;;;20.50;99.90;;;;;;5047588;28;20048;-59
2023/09/03 09:32:40;;;;;;;4.72;3.38;;;20.60;99.90;;;;;;5030593;28;20510;-59
2023/09/03 09:35:06;;;;;;;3.75;3.28;;;20.60;99.90;;;;;;5027095;28;20047;-58
2023/09/03 09:37:40;;;;;;;4.05;3.20;;;20.60;99.90;;;;;;5028128;28;20563;-58
2023/09/03 09:40:07;;;;;;;4.45;3.00;;;20.70;99.90;;;;;;5032960;28;20427;-57
2023/09/03 09:42:35;;;;;;;4.78;2.92;;;20.80;99.90;;;;;;5046397;28;20190;-59
2023/09/03 09:45:01;;;;;;;4.78;3.28;;;20.90;99.90;;;;;;5044318;28;20475;-59
2023/09/03 09:47:28;;;;;;;4.50;3.00;;;21.00;99.90;;;;;;5046398;28;20040;-59
2023/09/03 09:49:54;;;;;;;5.95;2.70;;;21.10;99.90;;;;;;5046050;28;20390;-59
2023/09/03 09:52:20;;;;;;;5.07;2.78;;;21.30;99.90;;;;;;5043220;28;20364;-59
2023/09/03 09:54:47;;;;;;;6.18;2.63;;;21.50;99.90;;;;;;5044837;28;20277;-59
2023/09/03 09:57:22;;;;;;;3.25;1.95;;;21.60;99.90;;;;;;5046675;28;20041;-59
2023/09/03 09:59:54;;;;;;;2.63;1.95;;;21.80;99.90;;;;;;5047693;28;20041;-60
2023/09/03 10:02:21;;;;;;;3.47;2.00;;;21.90;99.90;;;;;;5037504;28;20037;-59
2023/09/03 10:04:49;;;;;;;4.22;2.40;;;22.00;99.90;;;;;;5041643;28;20452;-59
2023/09/03 10:07:15;;;;;;;4.47;2.38;;;22.10;99.90;;;;;;5045427;28;20465;-60
2023/09/03 10:09:44;;;;;;;4.13;2.50;;;22.20;99.90;;;;;;5041095;28;20040;-60
2023/09/03 10:12:10;;;;;;;4.43;2.17;;;22.30;99.90;;;;;;5046566;28;20060;-60
2023/09/03 10:14:36;;;;;;;5.53;2.28;;;22.40;99.90;;;;;;5046247;28;20047;-57
2023/09/03 10:17:04;;;;;;;3.28;1.95;;;22.50;99.90;;;;;;5045382;28;20131;-59
2023/09/03 10:19:55;;;;;;;2.45;1.60;;;22.60;99.90;;;;;;5039523;28;20106;-60
2023/09/03 10:22:23;;;;;;;2.80;1.95;;;22.80;99.90;;;;;;5041451;28;20055;-60
2023/09/03 10:25:01;;;;;;;3.10;2.05;;;23.00;99.90;;;;;;5041858;28;20045;-59
2023/09/03 10:27:30;;;;;;;2.45;2.20;;;23.10;99.90;;;;;;5046006;28;20060;-60
2023/09/03 10:29:58;;;;;;;6.47;2.28;;;23.10;99.90;;;;;;5045212;28;20095;-60
2023/09/03 10:32:26;;;;;;;3.53;1.80;;;23.20;99.90;;;;;;5044676;28;20713;-59
2023/09/03 10:34:51;;;;;;;3.33;2.05;;;23.30;99.90;;;;;;5044106;28;20052;-60
2023/09/03 10:37:18;;;;;;;3.28;2.00;;;23.50;99.90;;;;;;5045991;28;20044;-59
2023/09/03 10:39:45;;;;;;;4.68;2.30;;;23.60;99.90;;;;;;5046622;28;20167;-57
2023/09/03 10:42:23;;;;;;;3.70;2.10;;;23.90;99.90;;;;;;5047329;28;20048;-59
2023/09/03 10:44:54;;;;;;;2.58;1.98;;;23.90;99.90;;;;;;5046129;28;20421;-59
2023/09/03 10:47:20;;;;;;;5.82;2.00;;;24.00;99.90;;;;;;5044727;28;20045;-59
2023/09/03 10:49:50;;;;;;;1.45;1.30;;;24.10;99.90;;;;;;5048365;28;20517;-59
2023/09/03 10:52:30;;;;;;;3.38;1.85;;;24.30;99.90;;;;;;5027783;28;20519;-60
2023/09/03 10:55:15;;;;;;;2.92;1.50;;;24.50;99.80;;;;;;5044464;28;20048;-59
2023/09/03 10:57:42;;;;;;;3.08;1.73;;;24.70;98.90;;;;;;5048706;28;20532;-59
2023/09/03 11:00:10;;;;;;;3.25;1.50;;;24.70;98.80;;;;;;5042209;28;20439;-59
2023/09/03 11:02:37;;;;;;;2.28;1.45;;;24.60;98.20;;;;;;5045749;28;20049;-60
2023/09/03 11:05:14;;;;;;;2.30;1.80;;;24.30;98.40;;;;;;5048613;28;20045;-59
2023/09/03 11:07:44;;;;;;;2.72;1.60;;;24.30;99.10;;;;;;5044643;28;20136;-58
2023/09/03 11:10:25;;;;;;;1.80;1.20;;;24.40;98.50;;;;;;5044796;28;20083;-60
2023/09/03 11:12:52;;;;;;;2.50;1.23;;;24.60;98.10;;;;;;5046262;28;20118;-60
2023/09/03 11:15:18;;;;;;;3.70;1.65;;;24.80;98.00;;;;;;5046939;28;20045;-59
2023/09/03 11:17:55;;;;;;;3.00;1.75;;;25.00;97.20;;;;;;5027095;28;20053;-60
2023/09/03 11:20:35;;;;;;;2.38;1.52;;;25.00;96.20;;;;;;5046174;28;20135;-60
2023/09/03 11:23:02;;;;;;;2.28;1.48;;;25.00;96.20;;;;;;5047505;28;20418;-59
2023/09/03 11:25:36;;;;;;;2.17;1.60;;;25.10;96.30;;;;;;5047534;28;20541;-59
2023/09/03 11:28:07;;;;;;;2.50;1.45;;;25.20;95.50;;;;;;5046914;28;20029;-60
2023/09/03 11:30:34;;;;;;;3.95;1.73;;;25.30;95.10;;;;;;5046819;28;20562;-59
2023/09/03 11:33:00;;;;;;;1.90;1.15;;;25.20;94.40;;;;;;5044459;28;20444;-59
2023/09/03 11:35:26;;;;;;;1.20;1.10;;;25.20;93.80;;;;;;5043379;28;20482;-60
2023/09/03 11:37:53;;;;;;;2.30;1.45;;;25.30;93.80;;;;;;5045526;28;20469;-60
2023/09/03 11:40:23;;;;;;;3.38;1.10;;;25.40;93.80;;;;;;5045146;28;20032;-59
2023/09/03 11:42:50;;;;;;;3.25;1.48;;;25.60;94.10;;;;;;5043673;28;20049;-60
2023/09/03 11:45:16;;;;;;;3.55;1.40;;;25.70;93.40;;;;;;5043998;28;20041;-60
2023/09/03 11:47:49;;;;;;;2.78;1.50;;;25.90;93.60;;;;;;5043065;28;20048;-59
2023/09/03 11:50:16;;;;;;;2.35;1.30;;;26.20;94.10;;;;;;5043051;28;20390;-60
2023/09/03 11:52:56;;;;;;;3.70;2.10;;;26.40;93.20;;;;;;5045378;28;20045;-60
2023/09/03 11:55:25;;;;;;;2.55;1.20;;;26.30;91.70;;;;;;5034741;28;20123;-60
2023/09/03 11:57:51;;;;;;;2.90;1.60;;;26.10;91.90;;;;;;5047565;28;20140;-60
2023/09/03 12:00:20;;;;;;;5.72;1.88;;;26.20;91.70;;;;;;5046851;28;20045;-60
2023/09/03 12:02:46;;;;;;;3.20;1.80;;;26.30;91.60;;;;;;5047423;28;20048;-60
2023/09/03 12:05:12;;;;;;;1.80;1.40;;;26.50;91.90;;;;;;5045119;28;20072;-58
2023/09/03 12:07:38;;;;;;;2.58;1.13;;;26.60;91.80;;;;;;5044112;28;20133;-60
2023/09/03 12:10:05;;;;;;;1.67;1.30;;;26.60;91.10;;;;;;5045704;28;20075;-60
2023/09/03 12:12:30;;;;;;;4.43;1.23;;;26.60;90.60;;;;;;5030367;28;20045;-60
2023/09/03 12:14:56;;;;;;;3.90;1.15;;;26.70;90.60;;;;;;5047710;28;20407;-60
2023/09/03 12:17:26;;;;;;;2.13;1.40;;;27.00;91.00;;;;;;5047099;28;20039;-60
2023/09/03 12:19:53;;;;;;;2.58;1.38;;;27.30;90.20;;;;;;5043668;28;20037;-59
2023/09/03 12:22:19;;;;;;;3.05;1.38;;;27.40;88.20;;;;;;5046520;28;20063;-61
2023/09/03 12:24:46;;;;;;;1.30;0.90;;;27.40;87.70;;;;;;5044623;28;20040;-60
2023/09/03 12:27:12;;;;;;;3.75;1.20;;;27.10;86.40;;;;;;5046522;28;20037;-60
2023/09/03 12:29:39;;;;;;;1.98;1.02;;;26.80;86.60;;;;;;5041093;28;20041;-59
2023/09/03 12:32:13;;;;;;;2.50;1.25;;;26.50;86.10;;;;;;5038533;28;20036;-60
2023/09/03 12:34:40;;;;;;;1.02;0.90;;;26.30;86.40;;;;;;5037016;28;20103;-60
2023/09/03 12:37:08;;;;;;;4.72;1.30;;;26.30;86.30;;;;;;5021568;28;20194;-59
2023/09/03 12:39:37;;;;;;;4.03;1.25;;;26.30;86.90;;;;;;5039652;28;20068;-60
2023/09/03 12:42:05;;;;;;;2.95;1.05;;;26.30;86.60;;;;;;5041349;28;20032;-60
2023/09/03 12:44:31;;;;;;;1.13;0.77;;;26.20;87.00;;;;;;5040253;28;20048;-60
2023/09/03 12:46:58;;;;;;;1.48;1.00;;;26.30;87.10;;;;;;5039832;28;20048;-59
2023/09/03 12:49:26;;;;;;;1.63;0.80;;;26.40;86.80;;;;;;5040394;28;20045;-60